sensor_id;sensor_type;location;lat;lon;timestamp;pressure;altitude;pressure_sealevel;temperature;humidity
73297;BME280;61524;50.938;11.396;2023-01-30T00:00:23;99248.63;;;-3.48;94.15
73297;BME280;61524;50.938;11.396;2023-01-30T00:02:48;99241.81;;;-3.40;94.13
73297;BME280;61524;50.938;11.396;2023-01-30T00:05:14;99240.84;;;-3.39;94.15
73297;BME280;61524;50.938;11.396;2023-01-30T00:07:39;99241.53;;;-3.37;94.83
73297;BME280;61524;50.938;11.396;2023-01-30T00:10:05;99230.63;;;-3.33;94.17
73297;BME280;61524;50.938;11.396;2023-01-30T00:12:30;99228.22;;;-3.26;94.22
73297;BME280;61524;50.938;11.396;2023-01-30T00:14:56;99221.09;;;-3.16;94.21
73297;BME280;61524;50.938;11.396;2023-01-30T00:17:21;99212.56;;;-3.18;93.57
73297;BME280;61524;50.938;11.396;2023-01-30T00:19:47;99201.38;;;-3.10;94.37
73297;BME280;61524;50.938;11.396;2023-01-30T00:22:12;99221.13;;;-3.08;94.06
73297;BME280;61524;50.938;11.396;2023-01-30T00:24:38;99208.13;;;-3.00;94.38
73297;BME280;61524;50.938;11.396;2023-01-30T00:27:03;99193.91;;;-2.97;93.96
73297;BME280;61524;50.938;11.396;2023-01-30T00:29:28;99175.31;;;-2.94;95.06
73297;BME280;61524;50.938;11.396;2023-01-30T00:31:54;99173.53;;;-2.94;94.59
73297;BME280;61524;50.938;11.396;2023-01-30T00:34:19;99159.03;;;-2.80;95.52
73297;BME280;61524;50.938;11.396;2023-01-30T00:40:07;99134.97;;;-2.92;96.77
73297;BME280;61524;50.938;11.396;2023-01-30T00:42:33;99100.69;;;-2.88;96.18
73297;BME280;61524;50.938;11.396;2023-01-30T00:45:17;99133.56;;;-2.78;96.20
73297;BME280;61524;50.938;11.396;2023-01-30T00:48:01;99122.13;;;-2.77;96.61
73297;BME280;61524;50.938;11.396;2023-01-30T00:50:26;99117.06;;;-2.70;96.25
73297;BME280;61524;50.938;11.396;2023-01-30T00:53:13;99092.25;;;-2.66;96.24
73297;BME280;61524;50.938;11.396;2023-01-30T00:55:38;99100.72;;;-2.64;96.42
73297;BME280;61524;50.938;11.396;2023-01-30T00:58:04;99097.97;;;-2.62;96.54
73297;BME280;61524;50.938;11.396;2023-01-30T01:00:30;99080.00;;;-2.57;97.24
73297;BME280;61524;50.938;11.396;2023-01-30T01:02:56;99085.91;;;-2.47;96.57
73297;BME280;61524;50.938;11.396;2023-01-30T01:05:21;99071.34;;;-2.50;97.04
73297;BME280;61524;50.938;11.396;2023-01-30T01:07:46;99065.81;;;-2.47;96.64
73297;BME280;61524;50.938;11.396;2023-01-30T01:10:12;99062.84;;;-2.44;96.23
73297;BME280;61524;50.938;11.396;2023-01-30T01:12:47;99055.16;;;-2.45;96.59
73297;BME280;61524;50.938;11.396;2023-01-30T01:15:14;99038.66;;;-2.46;96.76
73297;BME280;61524;50.938;11.396;2023-01-30T01:17:40;99014.13;;;-2.45;97.32
73297;BME280;61524;50.938;11.396;2023-01-30T01:20:07;99021.66;;;-2.42;96.72
73297;BME280;61524;50.938;11.396;2023-01-30T01:22:33;99022.28;;;-2.31;97.31
73297;BME280;61524;50.938;11.396;2023-01-30T01:24:59;99017.88;;;-2.15;96.71
73297;BME280;61524;50.938;11.396;2023-01-30T01:27:25;99031.44;;;-2.11;96.24
73297;BME280;61524;50.938;11.396;2023-01-30T01:29:50;99016.53;;;-2.02;96.58
73297;BME280;61524;50.938;11.396;2023-01-30T01:32:16;99024.56;;;-2.04;95.86
73297;BME280;61524;50.938;11.396;2023-01-30T01:34:41;99006.56;;;-2.07;96.13
73297;BME280;61524;50.938;11.396;2023-01-30T01:37:06;98991.50;;;-2.05;95.97
73297;BME280;61524;50.938;11.396;2023-01-30T01:39:32;98983.03;;;-2.07;96.04
73297;BME280;61524;50.938;11.396;2023-01-30T01:42:16;98975.16;;;-1.99;95.53
73297;BME280;61524;50.938;11.396;2023-01-30T01:45:01;98942.75;;;-1.98;96.17
73297;BME280;61524;50.938;11.396;2023-01-30T01:47:29;98971.88;;;-1.93;96.25
73297;BME280;61524;50.938;11.396;2023-01-30T01:49:55;98968.25;;;-1.92;95.85
73297;BME280;61524;50.938;11.396;2023-01-30T01:52:21;98982.66;;;-1.88;96.34
73297;BME280;61524;50.938;11.396;2023-01-30T01:54:51;98981.16;;;-1.82;95.66
73297;BME280;61524;50.938;11.396;2023-01-30T01:59:51;99013.03;;;-1.70;95.59
73297;BME280;61524;50.938;11.396;2023-01-30T02:02:17;99012.03;;;-1.69;95.57
73297;BME280;61524;50.938;11.396;2023-01-30T02:04:47;99005.00;;;-1.69;95.84
73297;BME280;61524;50.938;11.396;2023-01-30T02:07:41;99004.81;;;-1.67;95.07
73297;BME280;61524;50.938;11.396;2023-01-30T02:10:14;98999.44;;;-1.66;95.33
73297;BME280;61524;50.938;11.396;2023-01-30T02:12:43;99000.88;;;-1.63;95.65
73297;BME280;61524;50.938;11.396;2023-01-30T02:15:09;99003.31;;;-1.53;95.70
73297;BME280;61524;50.938;11.396;2023-01-30T02:17:34;98990.22;;;-1.53;95.36
73297;BME280;61524;50.938;11.396;2023-01-30T02:25:39;98960.00;;;-1.33;95.21
73297;BME280;61524;50.938;11.396;2023-01-30T02:31:06;98941.44;;;-1.23;95.26
73297;BME280;61524;50.938;11.396;2023-01-30T02:33:54;98940.78;;;-1.25;95.47
73297;BME280;61524;50.938;11.396;2023-01-30T02:37:06;98953.88;;;-1.25;95.64
73297;BME280;61524;50.938;11.396;2023-01-30T02:47:41;98920.69;;;-1.10;95.99
73297;BME280;61524;50.938;11.396;2023-01-30T02:50:19;98910.50;;;-1.05;96.00
73297;BME280;61524;50.938;11.396;2023-01-30T02:52:47;98891.63;;;-1.00;96.44
73297;BME280;61524;50.938;11.396;2023-01-30T02:55:21;98895.97;;;-0.93;96.91
73297;BME280;61524;50.938;11.396;2023-01-30T02:57:47;98877.28;;;-0.90;96.66
73297;BME280;61524;50.938;11.396;2023-01-30T03:00:15;98893.13;;;-0.83;96.74
73297;BME280;61524;50.938;11.396;2023-01-30T03:16:15;98875.19;;;-0.42;96.11
73297;BME280;61524;50.938;11.396;2023-01-30T03:18:44;98879.25;;;-0.39;96.20
73297;BME280;61524;50.938;11.396;2023-01-30T03:21:11;98884.16;;;-0.36;96.01
73297;BME280;61524;50.938;11.396;2023-01-30T03:23:37;98863.91;;;-0.42;96.25
73297;BME280;61524;50.938;11.396;2023-01-30T03:26:04;98858.81;;;-0.44;96.52
73297;BME280;61524;50.938;11.396;2023-01-30T03:28:31;98849.59;;;-0.40;96.48
73297;BME280;61524;50.938;11.396;2023-01-30T03:30:56;98855.28;;;-0.36;96.29
73297;BME280;61524;50.938;11.396;2023-01-30T03:33:22;98834.47;;;-0.38;96.11
73297;BME280;61524;50.938;11.396;2023-01-30T03:35:48;98814.03;;;-0.42;96.14
73297;BME280;61524;50.938;11.396;2023-01-30T03:38:14;98821.78;;;-0.34;96.08
73297;BME280;61524;50.938;11.396;2023-01-30T03:40:40;98803.16;;;-0.24;96.02
73297;BME280;61524;50.938;11.396;2023-01-30T03:43:05;98804.97;;;-0.25;96.11
73297;BME280;61524;50.938;11.396;2023-01-30T03:45:32;98810.41;;;-0.27;96.22
73297;BME280;61524;50.938;11.396;2023-01-30T03:47:57;98809.56;;;-0.27;96.31
73297;BME280;61524;50.938;11.396;2023-01-30T03:50:22;98797.97;;;-0.18;96.07
73297;BME280;61524;50.938;11.396;2023-01-30T03:52:48;98811.56;;;-0.14;95.55
73297;BME280;61524;50.938;11.396;2023-01-30T03:55:13;98803.31;;;-0.11;95.47
73297;BME280;61524;50.938;11.396;2023-01-30T03:57:39;98795.78;;;0.01;94.68
73297;BME280;61524;50.938;11.396;2023-01-30T04:00:05;98804.09;;;0.04;94.63
73297;BME280;61524;50.938;11.396;2023-01-30T04:02:30;98804.28;;;0.03;94.51
73297;BME280;61524;50.938;11.396;2023-01-30T04:04:56;98808.25;;;-0.02;94.96
73297;BME280;61524;50.938;11.396;2023-01-30T04:07:21;98803.69;;;-0.14;95.28
73297;BME280;61524;50.938;11.396;2023-01-30T04:09:47;98791.19;;;-0.12;95.54
73297;BME280;61524;50.938;11.396;2023-01-30T04:12:13;98818.16;;;-0.18;95.48
73297;BME280;61524;50.938;11.396;2023-01-30T04:14:38;98816.34;;;-0.18;96.17
73297;BME280;61524;50.938;11.396;2023-01-30T04:17:04;98813.31;;;-0.21;96.04
73297;BME280;61524;50.938;11.396;2023-01-30T04:19:29;98812.75;;;-0.32;96.30
73297;BME280;61524;50.938;11.396;2023-01-30T04:21:55;98809.69;;;-0.35;97.17
73297;BME280;61524;50.938;11.396;2023-01-30T04:24:20;98792.84;;;-0.26;96.86
73297;BME280;61524;50.938;11.396;2023-01-30T04:26:45;98804.16;;;-0.25;96.85
73297;BME280;61524;50.938;11.396;2023-01-30T04:29:11;98791.75;;;-0.32;96.78
73297;BME280;61524;50.938;11.396;2023-01-30T04:31:36;98793.38;;;-0.31;97.10
73297;BME280;61524;50.938;11.396;2023-01-30T04:34:02;98789.31;;;-0.33;97.36
73297;BME280;61524;50.938;11.396;2023-01-30T04:36:27;98790.69;;;-0.37;97.73
73297;BME280;61524;50.938;11.396;2023-01-30T04:38:53;98792.38;;;-0.30;97.73
73297;BME280;61524;50.938;11.396;2023-01-30T04:41:20;98768.50;;;-0.35;97.67
73297;BME280;61524;50.938;11.396;2023-01-30T04:43:46;98759.97;;;-0.22;97.90
73297;BME280;61524;50.938;11.396;2023-01-30T04:46:11;98762.97;;;-0.25;97.93
73297;BME280;61524;50.938;11.396;2023-01-30T04:48:36;98759.81;;;-0.20;97.96
73297;BME280;61524;50.938;11.396;2023-01-30T04:51:03;98763.03;;;-0.18;97.85
73297;BME280;61524;50.938;11.396;2023-01-30T04:53:29;98763.84;;;-0.18;98.34
73297;BME280;61524;50.938;11.396;2023-01-30T04:55:54;98765.47;;;-0.17;98.39
73297;BME280;61524;50.938;11.396;2023-01-30T04:58:20;98762.28;;;-0.12;98.45
73297;BME280;61524;50.938;11.396;2023-01-30T05:00:46;98756.88;;;-0.11;98.27
73297;BME280;61524;50.938;11.396;2023-01-30T05:03:12;98769.38;;;-0.13;98.50
73297;BME280;61524;50.938;11.396;2023-01-30T05:05:38;98760.19;;;-0.02;98.18
73297;BME280;61524;50.938;11.396;2023-01-30T05:08:04;98748.31;;;0.02;97.99
73297;BME280;61524;50.938;11.396;2023-01-30T05:10:29;98737.63;;;0.04;98.16
73297;BME280;61524;50.938;11.396;2023-01-30T05:12:55;98748.78;;;0.06;98.26
73297;BME280;61524;50.938;11.396;2023-01-30T05:15:20;98739.56;;;-0.05;98.54
73297;BME280;61524;50.938;11.396;2023-01-30T05:17:45;98736.09;;;-0.06;98.70
73297;BME280;61524;50.938;11.396;2023-01-30T05:20:11;98720.75;;;-0.09;98.65
73297;BME280;61524;50.938;11.396;2023-01-30T05:22:37;98702.81;;;-0.05;98.76
73297;BME280;61524;50.938;11.396;2023-01-30T05:25:03;98706.41;;;-0.06;99.10
73297;BME280;61524;50.938;11.396;2023-01-30T05:27:29;98685.41;;;-0.06;98.89
73297;BME280;61524;50.938;11.396;2023-01-30T05:29:54;98700.34;;;-0.07;99.13
73297;BME280;61524;50.938;11.396;2023-01-30T05:32:20;98681.41;;;-0.02;98.84
73297;BME280;61524;50.938;11.396;2023-01-30T05:34:47;98684.50;;;0.02;99.06
73297;BME280;61524;50.938;11.396;2023-01-30T05:37:13;98675.31;;;0.12;98.70
73297;BME280;61524;50.938;11.396;2023-01-30T05:39:38;98689.69;;;0.16;98.36
73297;BME280;61524;50.938;11.396;2023-01-30T05:42:04;98677.22;;;0.25;97.50
73297;BME280;61524;50.938;11.396;2023-01-30T05:44:29;98666.50;;;0.26;97.53
73297;BME280;61524;50.938;11.396;2023-01-30T05:46:56;98665.59;;;0.34;97.17
73297;BME280;61524;50.938;11.396;2023-01-30T05:49:22;98661.50;;;0.32;97.04
73297;BME280;61524;50.938;11.396;2023-01-30T05:51:47;98682.09;;;0.28;96.94
73297;BME280;61524;50.938;11.396;2023-01-30T05:54:13;98672.97;;;0.24;96.82
73297;BME280;61524;50.938;11.396;2023-01-30T05:56:38;98680.25;;;0.22;97.14
73297;BME280;61524;50.938;11.396;2023-01-30T05:59:04;98691.81;;;0.28;96.95
73297;BME280;61524;50.938;11.396;2023-01-30T06:01:29;98691.00;;;0.27;96.67
73297;BME280;61524;50.938;11.396;2023-01-30T06:03:57;98675.16;;;0.20;97.14
73297;BME280;61524;50.938;11.396;2023-01-30T06:06:23;98676.97;;;0.20;97.04
73297;BME280;61524;50.938;11.396;2023-01-30T06:08:52;98653.47;;;0.12;97.50
73297;BME280;61524;50.938;11.396;2023-01-30T06:11:18;98647.84;;;0.15;98.24
73297;BME280;61524;50.938;11.396;2023-01-30T06:13:44;98627.63;;;0.15;98.35
73297;BME280;61524;50.938;11.396;2023-01-30T06:16:11;98633.88;;;0.14;98.40
73297;BME280;61524;50.938;11.396;2023-01-30T06:18:37;98644.03;;;0.17;98.66
73297;BME280;61524;50.938;11.396;2023-01-30T06:21:03;98641.25;;;0.25;98.90
73297;BME280;61524;50.938;11.396;2023-01-30T06:23:29;98659.28;;;0.29;98.63
73297;BME280;61524;50.938;11.396;2023-01-30T06:25:55;98655.84;;;0.28;98.10
73297;BME280;61524;50.938;11.396;2023-01-30T06:28:21;98655.06;;;0.34;98.32
73297;BME280;61524;50.938;11.396;2023-01-30T06:30:47;98653.78;;;0.23;97.84
73297;BME280;61524;50.938;11.396;2023-01-30T06:33:13;98653.78;;;0.23;98.30
73297;BME280;61524;50.938;11.396;2023-01-30T06:35:40;98660.34;;;0.34;98.15
73297;BME280;61524;50.938;11.396;2023-01-30T06:38:07;98653.38;;;0.26;98.32
73297;BME280;61524;50.938;11.396;2023-01-30T06:40:37;98654.53;;;0.17;98.91
73297;BME280;61524;50.938;11.396;2023-01-30T06:43:03;98642.63;;;0.21;98.92
73297;BME280;61524;50.938;11.396;2023-01-30T06:45:29;98653.38;;;0.26;98.92
73297;BME280;61524;50.938;11.396;2023-01-30T06:47:55;98651.75;;;0.25;98.99
73297;BME280;61524;50.938;11.396;2023-01-30T06:50:23;98650.59;;;0.28;98.68
73297;BME280;61524;50.938;11.396;2023-01-30T06:52:50;98661.50;;;0.32;98.57
73297;BME280;61524;50.938;11.396;2023-01-30T06:55:19;98662.72;;;0.29;98.76
73297;BME280;61524;50.938;11.396;2023-01-30T06:57:46;98658.22;;;0.23;98.67
73297;BME280;61524;50.938;11.396;2023-01-30T07:00:17;98655.66;;;0.30;99.13
73297;BME280;61524;50.938;11.396;2023-01-30T07:02:44;98655.44;;;0.31;99.34
73297;BME280;61524;50.938;11.396;2023-01-30T07:05:09;98664.56;;;0.35;98.68
73297;BME280;61524;50.938;11.396;2023-01-30T07:07:35;98655.88;;;0.35;98.67
73297;BME280;61524;50.938;11.396;2023-01-30T07:10:02;98653.69;;;0.38;98.36
73297;BME280;61524;50.938;11.396;2023-01-30T07:12:28;98648.69;;;0.43;98.61
73297;BME280;61524;50.938;11.396;2023-01-30T07:14:54;98661.63;;;0.45;98.08
73297;BME280;61524;50.938;11.396;2023-01-30T07:17:20;98658.34;;;0.43;98.57
73297;BME280;61524;50.938;11.396;2023-01-30T07:19:46;98646.28;;;0.48;98.79
73297;BME280;61524;50.938;11.396;2023-01-30T07:22:11;98657.31;;;0.65;98.28
73297;BME280;61524;50.938;11.396;2023-01-30T07:24:38;98655.53;;;0.72;97.50
73297;BME280;61524;50.938;11.396;2023-01-30T07:27:06;98651.66;;;0.68;98.11
73297;BME280;61524;50.938;11.396;2023-01-30T07:29:34;98659.34;;;0.70;98.35
73297;BME280;61524;50.938;11.396;2023-01-30T07:32:00;98656.69;;;0.63;98.69
73297;BME280;61524;50.938;11.396;2023-01-30T07:34:25;98646.41;;;0.68;98.80
73297;BME280;61524;50.938;11.396;2023-01-30T07:36:50;98626.03;;;0.70;99.32
73297;BME280;61524;50.938;11.396;2023-01-30T07:39:16;98635.28;;;0.66;99.26
73297;BME280;61524;50.938;11.396;2023-01-30T07:41:42;98629.41;;;0.64;99.56
73297;BME280;61524;50.938;11.396;2023-01-30T07:44:07;98619.50;;;0.66;100.00
73297;BME280;61524;50.938;11.396;2023-01-30T07:46:33;98621.75;;;0.69;100.00
73297;BME280;61524;50.938;11.396;2023-01-30T07:49:05;98621.00;;;0.75;99.41
73297;BME280;61524;50.938;11.396;2023-01-30T07:51:32;98627.66;;;0.78;99.38
73297;BME280;61524;50.938;11.396;2023-01-30T07:53:57;98606.88;;;0.83;99.54
73297;BME280;61524;50.938;11.396;2023-01-30T07:56:23;98607.31;;;0.87;99.13
73297;BME280;61524;50.938;11.396;2023-01-30T07:58:49;98602.03;;;0.87;98.67
73297;BME280;61524;50.938;11.396;2023-01-30T08:01:15;98612.34;;;0.88;98.46
73297;BME280;61524;50.938;11.396;2023-01-30T08:03:41;98612.56;;;0.87;98.62
73297;BME280;61524;50.938;11.396;2023-01-30T08:06:08;98616.22;;;0.92;98.66
73297;BME280;61524;50.938;11.396;2023-01-30T08:08:34;98601.44;;;0.91;97.93
73297;BME280;61524;50.938;11.396;2023-01-30T08:10:59;98597.63;;;0.94;98.18
73297;BME280;61524;50.938;11.396;2023-01-30T08:13:25;98611.59;;;1.01;97.02
73297;BME280;61524;50.938;11.396;2023-01-30T08:15:50;98605.97;;;1.04;97.13
73297;BME280;61524;50.938;11.396;2023-01-30T08:18:16;98593.00;;;1.02;96.99
73297;BME280;61524;50.938;11.396;2023-01-30T08:20:41;98597.41;;;0.95;97.76
73297;BME280;61524;50.938;11.396;2023-01-30T08:23:07;98611.25;;;1.11;96.37
73297;BME280;61524;50.938;11.396;2023-01-30T08:25:33;98603.59;;;1.22;95.82
73297;BME280;61524;50.938;11.396;2023-01-30T08:28:00;98603.22;;;1.32;95.18
73297;BME280;61524;50.938;11.396;2023-01-30T08:30:25;98621.47;;;1.40;94.14
73297;BME280;61524;50.938;11.396;2023-01-30T08:32:51;98615.59;;;1.45;94.25
73297;BME280;61524;50.938;11.396;2023-01-30T08:35:17;98612.56;;;1.48;94.17
73297;BME280;61524;50.938;11.396;2023-01-30T08:37:42;98599.81;;;1.45;93.86
73297;BME280;61524;50.938;11.396;2023-01-30T08:40:09;98605.72;;;1.60;93.19
73297;BME280;61524;50.938;11.396;2023-01-30T08:42:34;98610.59;;;1.63;93.53
73297;BME280;61524;50.938;11.396;2023-01-30T08:45:00;98606.34;;;1.75;92.64
73297;BME280;61524;50.938;11.396;2023-01-30T08:47:25;98593.19;;;1.75;92.43
73297;BME280;61524;50.938;11.396;2023-01-30T08:49:51;98594.22;;;1.74;92.57
73297;BME280;61524;50.938;11.396;2023-01-30T08:52:18;98614.66;;;1.79;92.01
73297;BME280;61524;50.938;11.396;2023-01-30T08:54:43;98599.06;;;1.77;92.51
73297;BME280;61524;50.938;11.396;2023-01-30T08:57:09;98609.00;;;1.75;92.89
73297;BME280;61524;50.938;11.396;2023-01-30T08:59:34;98594.63;;;1.78;92.52
73297;BME280;61524;50.938;11.396;2023-01-30T09:02:00;98579.84;;;1.83;92.83
73297;BME280;61524;50.938;11.396;2023-01-30T09:04:25;98598.28;;;1.83;92.82
73297;BME280;61524;50.938;11.396;2023-01-30T09:06:53;98611.41;;;1.77;93.56
73297;BME280;61524;50.938;11.396;2023-01-30T09:09:19;98599.47;;;1.81;92.85
73297;BME280;61524;50.938;11.396;2023-01-30T09:11:44;98592.38;;;1.81;93.29
73297;BME280;61524;50.938;11.396;2023-01-30T09:14:12;98603.75;;;1.89;93.16
73297;BME280;61524;50.938;11.396;2023-01-30T09:16:38;98624.41;;;1.85;93.73
73297;BME280;61524;50.938;11.396;2023-01-30T09:19:03;98596.84;;;1.74;94.88
73297;BME280;61524;50.938;11.396;2023-01-30T09:21:29;98606.94;;;1.71;96.04
73297;BME280;61524;50.938;11.396;2023-01-30T09:23:56;98612.44;;;1.69;97.06
73297;BME280;61524;50.938;11.396;2023-01-30T09:26:22;98595.66;;;1.83;96.75
73297;BME280;61524;50.938;11.396;2023-01-30T09:28:47;98597.84;;;1.93;96.13
73297;BME280;61524;50.938;11.396;2023-01-30T09:31:13;98586.34;;;1.94;96.11
73297;BME280;61524;50.938;11.396;2023-01-30T09:33:38;98582.47;;;1.97;95.13
73297;BME280;61524;50.938;11.396;2023-01-30T09:36:04;98579.81;;;2.03;94.74
73297;BME280;61524;50.938;11.396;2023-01-30T09:38:30;98569.09;;;2.31;94.52
73297;BME280;61524;50.938;11.396;2023-01-30T09:44:05;98580.47;;;2.97;92.00
73297;BME280;61524;50.938;11.396;2023-01-30T09:54:35;98599.88;;;2.44;91.93
73297;BME280;61524;50.938;11.396;2023-01-30T09:57:11;98583.66;;;2.41;92.01
73297;BME280;61524;50.938;11.396;2023-01-30T10:00:20;98604.34;;;2.37;92.12
73297;BME280;61524;50.938;11.396;2023-01-30T10:05:54;98600.31;;;2.28;92.50
73297;BME280;61524;50.938;11.396;2023-01-30T10:16:35;98618.94;;;2.33;92.68
73297;BME280;61524;50.938;11.396;2023-01-30T10:25:23;98643.06;;;2.36;93.31
73297;BME280;61524;50.938;11.396;2023-01-30T10:31:01;98635.56;;;2.40;93.99
73297;BME280;61524;50.938;11.396;2023-01-30T10:33:34;98617.53;;;2.44;94.30
73297;BME280;61524;50.938;11.396;2023-01-30T10:36:11;98618.50;;;2.56;93.92
73297;BME280;61524;50.938;11.396;2023-01-30T10:38:45;98631.31;;;2.59;93.16
73297;BME280;61524;50.938;11.396;2023-01-30T10:41:23;98627.84;;;2.65;92.69
73297;BME280;61524;50.938;11.396;2023-01-30T10:44:12;98627.41;;;2.68;92.63
73297;BME280;61524;50.938;11.396;2023-01-30T10:49:35;98626.59;;;2.74;91.67
73297;BME280;61524;50.938;11.396;2023-01-30T10:54:41;98638.81;;;2.55;92.55
73297;BME280;61524;50.938;11.396;2023-01-30T10:57:22;98648.94;;;2.58;93.50
73297;BME280;61524;50.938;11.396;2023-01-30T11:00:00;98643.69;;;2.39;95.02
73297;BME280;61524;50.938;11.396;2023-01-30T11:03:01;98644.88;;;2.36;95.83
73297;BME280;61524;50.938;11.396;2023-01-30T11:05:48;98650.97;;;2.36;95.72
73297;BME280;61524;50.938;11.396;2023-01-30T11:08:27;98651.38;;;2.40;95.68
73297;BME280;61524;50.938;11.396;2023-01-30T11:10:54;98642.47;;;2.34;95.28
73297;BME280;61524;50.938;11.396;2023-01-30T11:15:58;98640.03;;;2.26;94.92
73297;BME280;61524;50.938;11.396;2023-01-30T11:18:25;98631.13;;;2.27;95.65
73297;BME280;61524;50.938;11.396;2023-01-30T11:23:34;98623.41;;;2.26;94.49
73297;BME280;61524;50.938;11.396;2023-01-30T11:26:01;98617.53;;;2.30;94.73
73297;BME280;61524;50.938;11.396;2023-01-30T11:28:34;98612.06;;;2.32;94.82
73297;BME280;61524;50.938;11.396;2023-01-30T11:31:00;98616.91;;;2.42;94.66
73297;BME280;61524;50.938;11.396;2023-01-30T11:33:37;98611.03;;;2.40;93.77
73297;BME280;61524;50.938;11.396;2023-01-30T11:36:25;98609.81;;;2.49;93.65
73297;BME280;61524;50.938;11.396;2023-01-30T11:39:03;98621.13;;;2.62;92.75
73297;BME280;61524;50.938;11.396;2023-01-30T11:41:58;98604.50;;;2.75;92.42
73297;BME280;61524;50.938;11.396;2023-01-30T11:44:36;98589.72;;;2.54;92.15
73297;BME280;61524;50.938;11.396;2023-01-30T11:47:25;98558.53;;;2.38;92.28
73297;BME280;61524;50.938;11.396;2023-01-30T11:49:53;98585.25;;;2.42;93.00
73297;BME280;61524;50.938;11.396;2023-01-30T11:52:26;98593.75;;;2.63;92.56
73297;BME280;61524;50.938;11.396;2023-01-30T11:54:57;98598.41;;;2.75;91.71
73297;BME280;61524;50.938;11.396;2023-01-30T11:57:25;98578.25;;;2.94;92.11
73297;BME280;61524;50.938;11.396;2023-01-30T11:59:56;98588.41;;;2.90;91.82
73297;BME280;61524;50.938;11.396;2023-01-30T12:02:34;98583.97;;;2.77;91.71
73297;BME280;61524;50.938;11.396;2023-01-30T12:05:12;98572.44;;;2.72;91.33
73297;BME280;61524;50.938;11.396;2023-01-30T12:07:43;98577.50;;;2.80;91.44
73297;BME280;61524;50.938;11.396;2023-01-30T12:12:51;98569.38;;;2.81;91.12
73297;BME280;61524;50.938;11.396;2023-01-30T12:15:28;98566.50;;;2.83;90.84
73297;BME280;61524;50.938;11.396;2023-01-30T12:23:45;98581.44;;;3.09;90.46
73297;BME280;61524;50.938;11.396;2023-01-30T12:26:19;98578.22;;;3.07;89.93
73297;BME280;61524;50.938;11.396;2023-01-30T12:29:23;98565.63;;;3.02;89.48
73297;BME280;61524;50.938;11.396;2023-01-30T12:32:10;98569.94;;;2.97;88.89
73297;BME280;61524;50.938;11.396;2023-01-30T12:34:37;98558.72;;;3.08;89.33
73297;BME280;61524;50.938;11.396;2023-01-30T12:45:30;98562.47;;;3.25;88.25
73297;BME280;61524;50.938;11.396;2023-01-30T12:54:16;98540.72;;;2.92;89.85
73297;BME280;61524;50.938;11.396;2023-01-30T12:59:27;98543.75;;;2.88;89.79
73297;BME280;61524;50.938;11.396;2023-01-30T13:05:19;98544.44;;;2.71;90.18
73297;BME280;61524;50.938;11.396;2023-01-30T13:13:30;98536.50;;;2.77;90.61
73297;BME280;61524;50.938;11.396;2023-01-30T13:19:05;98535.16;;;3.06;90.46
73297;BME280;61524;50.938;11.396;2023-01-30T13:21:43;98555.06;;;3.09;89.86
73297;BME280;61524;50.938;11.396;2023-01-30T13:24:24;98535.44;;;3.30;89.94
73297;BME280;61524;50.938;11.396;2023-01-30T13:26:58;98560.06;;;3.17;88.81
73297;BME280;61524;50.938;11.396;2023-01-30T13:29:30;98539.97;;;3.16;89.25
73297;BME280;61524;50.938;11.396;2023-01-30T13:31:58;98548.97;;;3.08;89.27
73297;BME280;61524;50.938;11.396;2023-01-30T13:34:39;98559.19;;;2.85;89.85
73297;BME280;61524;50.938;11.396;2023-01-30T13:37:13;98543.38;;;2.85;89.54
73297;BME280;61524;50.938;11.396;2023-01-30T13:39:43;98559.84;;;2.80;89.43
73297;BME280;61524;50.938;11.396;2023-01-30T13:44:47;98563.06;;;2.82;88.68
73297;BME280;61524;50.938;11.396;2023-01-30T13:47:18;98577.47;;;2.86;88.80
73297;BME280;61524;50.938;11.396;2023-01-30T13:49:55;98567.94;;;2.85;89.08
73297;BME280;61524;50.938;11.396;2023-01-30T13:52:49;98568.28;;;2.96;88.97
73297;BME280;61524;50.938;11.396;2023-01-30T13:55:40;98570.16;;;2.88;89.33
73297;BME280;61524;50.938;11.396;2023-01-30T14:00:55;98558.75;;;2.95;89.42
73297;BME280;61524;50.938;11.396;2023-01-30T14:03:26;98573.56;;;3.02;89.14
73297;BME280;61524;50.938;11.396;2023-01-30T14:14:02;98604.19;;;3.03;89.49
73297;BME280;61524;50.938;11.396;2023-01-30T14:17:07;98587.53;;;3.09;88.68
73297;BME280;61524;50.938;11.396;2023-01-30T14:20:14;98588.75;;;3.07;88.38
73297;BME280;61524;50.938;11.396;2023-01-30T14:28:36;98596.69;;;3.07;87.85
73297;BME280;61524;50.938;11.396;2023-01-30T14:30:36;98584.03;;;3.15;86.76
73297;BME280;61524;50.938;11.396;2023-01-30T14:33:03;98607.13;;;3.27;86.02
73297;BME280;61524;50.938;11.396;2023-01-30T14:38:24;98608.38;;;3.24;85.93
73297;BME280;61524;50.938;11.396;2023-01-30T14:46:10;98616.75;;;3.14;84.97
73297;BME280;61524;50.938;11.396;2023-01-30T14:48:57;98608.59;;;3.16;84.71
73297;BME280;61524;50.938;11.396;2023-01-30T14:51:35;98614.91;;;3.15;84.59
73297;BME280;61524;50.938;11.396;2023-01-30T15:10:12;98652.41;;;3.30;82.92
73297;BME280;61524;50.938;11.396;2023-01-30T15:20:44;98684.53;;;3.21;82.65
73297;BME280;61524;50.938;11.396;2023-01-30T15:31:33;98709.72;;;3.23;83.87
73297;BME280;61524;50.938;11.396;2023-01-30T15:33:58;98717.03;;;3.14;84.50
73297;BME280;61524;50.938;11.396;2023-01-30T15:36:34;98729.00;;;3.10;84.71
73297;BME280;61524;50.938;11.396;2023-01-30T15:39:20;98720.91;;;3.05;85.41
73297;BME280;61524;50.938;11.396;2023-01-30T15:41:47;98716.44;;;2.99;86.05
73297;BME280;61524;50.938;11.396;2023-01-30T15:46:56;98731.69;;;2.97;86.47
73297;BME280;61524;50.938;11.396;2023-01-30T15:49:54;98743.88;;;2.92;86.61
73297;BME280;61524;50.938;11.396;2023-01-30T15:52:27;98712.41;;;2.97;86.44
73297;BME280;61524;50.938;11.396;2023-01-30T15:54:57;98717.06;;;3.08;85.35
73297;BME280;61524;50.938;11.396;2023-01-30T15:57:30;98742.03;;;2.99;85.67
73297;BME280;61524;50.938;11.396;2023-01-30T15:59:58;98738.38;;;2.93;85.90
73297;BME280;61524;50.938;11.396;2023-01-30T16:02:30;98749.56;;;2.82;85.99
73297;BME280;61524;50.938;11.396;2023-01-30T16:05:13;98747.31;;;2.85;85.91
73297;BME280;61524;50.938;11.396;2023-01-30T16:07:40;98736.78;;;2.85;86.05